Terminal Aerodrome Forecast
Issued by NWS

Home | Current Version | Previous Version | Text Only | Print | Product List | Glossary On
Versions: 1 2 3 4 5 6 7 8 9 10 11 12 13 14 15 16 17 18 19 20 21 22 23
000
FTUS41 KGYX 010200 AAA
TAFRKD
TAF AMD
KRKD 010217Z 0102/0124 18006KT P6SM SCT007 SCT100
     FM010400 21003KT 2SM BR SCT002
     FM010600 21003KT 1/4SM FG VV002
     FM011400 14005KT 6SM BR SCT002
     FM011800 18009KT P6SM SCT045
      AMD LTD TO CLD VIS AND WIND=

USA.gov is the U.S. government's official web portal to all federal, state and local government web resources and services.